METAR Data
IDs: Format: Raw Decoded Include TAF

Data at: 2228 UTC 02 Aug 2021

LYPG 022200Z VRB01KT CAVOK 24/14 Q1013 NOSIG